createdAt,value
2017-04-03T00:00:15.306Z,0
2017-04-03T00:00:55.834Z,0
2017-04-03T00:01:36.366Z,0
2017-04-03T00:02:16.903Z,0
2017-04-03T00:02:57.442Z,0
2017-04-03T00:03:37.955Z,0
2017-04-03T00:04:18.484Z,0
2017-04-03T00:04:59.016Z,0
2017-04-03T00:05:39.555Z,0
2017-04-03T00:06:20.058Z,0
2017-04-03T00:07:00.575Z,0
2017-04-03T00:07:41.107Z,0
2017-04-03T00:08:21.652Z,0
2017-04-03T00:09:02.170Z,0
2017-04-03T00:09:42.702Z,0
2017-04-03T00:10:23.234Z,0
2017-04-03T00:11:03.763Z,0
2017-04-03T00:11:44.292Z,0
2017-04-03T00:12:24.840Z,0
2017-04-03T00:13:05.369Z,0
2017-04-03T00:13:45.898Z,0
2017-04-03T00:14:26.419Z,0
2017-04-03T00:15:06.960Z,0
2017-04-03T00:15:47.492Z,0
2017-04-03T00:16:28.011Z,0
2017-04-03T00:17:08.550Z,0
2017-04-03T00:17:49.086Z,0
2017-04-03T00:18:29.603Z,0
2017-04-03T00:19:10.134Z,0
2017-04-03T00:19:50.642Z,0
2017-04-03T00:20:31.178Z,0
2017-04-03T00:21:11.714Z,0
2017-04-03T00:21:52.250Z,0
2017-04-03T00:22:32.768Z,0
2017-04-03T00:23:13.291Z,0
2017-04-03T00:23:53.822Z,0
2017-04-03T00:24:34.347Z,0
2017-04-03T00:25:14.881Z,0
2017-04-03T00:25:55.404Z,0
2017-04-03T00:26:35.927Z,0
2017-04-03T00:27:16.472Z,0
2017-04-03T00:27:56.991Z,0
2017-04-03T00:28:37.523Z,0
2017-04-03T00:29:18.055Z,0
2017-04-03T00:29:58.586Z,0
2017-04-03T00:30:39.123Z,0
2017-04-03T00:31:19.651Z,0
2017-04-03T00:32:00.185Z,0
2017-04-03T00:32:40.714Z,0
2017-04-03T00:33:21.248Z,0
2017-04-03T00:34:01.776Z,0
2017-04-03T00:34:42.305Z,0
2017-04-03T00:35:22.829Z,0
2017-04-03T00:36:03.360Z,0
2017-04-03T00:36:43.900Z,0
2017-04-03T00:37:24.432Z,0
2017-04-03T00:38:04.964Z,0
2017-04-03T00:38:45.507Z,0
2017-04-03T00:39:26.028Z,0
2017-04-03T00:40:06.573Z,0
2017-04-03T00:40:47.097Z,0
2017-04-03T00:41:27.622Z,0
2017-04-03T00:42:08.160Z,0
2017-04-03T00:42:48.696Z,0
2017-04-03T00:43:29.226Z,0
2017-04-03T00:44:09.752Z,0
2017-04-03T00:44:50.292Z,0
2017-04-03T00:45:30.832Z,0
2017-04-03T00:46:11.364Z,0
2017-04-03T00:46:51.911Z,0
2017-04-03T00:47:32.447Z,0
2017-04-03T00:48:12.969Z,0
2017-04-03T00:48:53.492Z,0
2017-04-03T00:49:34.020Z,0
2017-04-03T00:50:14.564Z,0
2017-04-03T00:50:55.081Z,0
2017-04-03T00:51:35.605Z,0
2017-04-03T00:52:16.133Z,0
2017-04-03T00:52:56.666Z,0
2017-04-03T00:53:37.177Z,0
2017-04-03T00:54:17.704Z,0
2017-04-03T00:54:58.233Z,0
2017-04-03T00:55:38.771Z,0
2017-04-03T00:56:19.310Z,0
2017-04-03T00:56:59.841Z,0
2017-04-03T00:57:40.367Z,0
2017-04-03T00:58:20.905Z,0
2017-04-03T00:59:01.437Z,0
2017-04-03T00:59:41.971Z,0
2017-04-03T01:00:22.513Z,0
2017-04-03T01:01:03.048Z,0
2017-04-03T01:01:43.577Z,0
2017-04-03T01:02:24.110Z,0
2017-04-03T01:03:04.632Z,0
2017-04-03T01:03:45.171Z,0
2017-04-03T01:04:25.699Z,0
2017-04-03T01:05:06.217Z,0
2017-04-03T01:05:46.752Z,0
2017-04-03T01:06:27.271Z,0
2017-04-03T01:07:07.791Z,0
2017-04-03T01:07:48.331Z,0
2017-04-03T01:08:28.865Z,0
2017-04-03T01:09:09.398Z,0
2017-04-03T01:09:49.923Z,0
2017-04-03T01:10:30.431Z,0
2017-04-03T01:11:10.939Z,0
2017-04-03T01:11:51.482Z,0
2017-04-03T01:12:32.009Z,0
2017-04-03T01:13:12.547Z,0
2017-04-03T01:13:53.079Z,0
2017-04-03T01:14:33.616Z,0
2017-04-03T01:15:14.168Z,0
2017-04-03T01:15:54.702Z,0
2017-04-03T01:16:35.244Z,0
2017-04-03T01:17:15.778Z,0
2017-04-03T01:17:56.306Z,0
2017-04-03T01:18:36.824Z,0
2017-04-03T01:19:17.372Z,0
2017-04-03T01:19:57.910Z,0
2017-04-03T01:20:38.449Z,0
2017-04-03T01:21:18.986Z,0
2017-04-03T01:21:59.509Z,0
2017-04-03T01:22:40.038Z,0
2017-04-03T01:23:20.576Z,0
2017-04-03T01:24:01.112Z,0
2017-04-03T01:24:41.631Z,0
2017-04-03T01:25:22.162Z,0
2017-04-03T01:26:02.689Z,0
2017-04-03T01:26:43.234Z,0
2017-04-03T01:27:23.746Z,0
2017-04-03T01:28:04.276Z,0
2017-04-03T01:28:44.817Z,0
2017-04-03T01:29:25.346Z,0
2017-04-03T01:30:05.864Z,0
2017-04-03T01:30:46.434Z,0
2017-04-03T01:31:26.980Z,0
2017-04-03T01:32:07.492Z,0
2017-04-03T01:32:48.016Z,0
2017-04-03T01:33:28.550Z,0
2017-04-03T01:34:09.084Z,0
2017-04-03T01:34:49.612Z,0
2017-04-03T01:35:30.163Z,0
2017-04-03T01:36:10.695Z,0
2017-04-03T01:36:51.228Z,0
2017-04-03T01:37:31.771Z,0
2017-04-03T01:38:12.304Z,0
2017-04-03T01:38:52.835Z,0
2017-04-03T01:39:33.385Z,0
2017-04-03T01:40:13.919Z,0
2017-04-03T01:40:54.455Z,0
2017-04-03T01:41:34.995Z,0
2017-04-03T01:42:15.519Z,0
2017-04-03T01:42:56.055Z,0
2017-04-03T01:43:36.591Z,0
2017-04-03T01:44:17.125Z,0
2017-04-03T01:44:57.668Z,0
2017-04-03T01:45:38.200Z,0
2017-04-03T01:46:18.732Z,0
2017-04-03T01:46:59.257Z,0
2017-04-03T01:47:39.790Z,0
2017-04-03T01:48:20.328Z,0
2017-04-03T01:49:00.859Z,0
2017-04-03T01:49:41.386Z,0
2017-04-03T01:50:21.922Z,0
2017-04-03T01:51:02.455Z,0
2017-04-03T01:51:42.986Z,0
2017-04-03T01:52:23.504Z,0
2017-04-03T01:53:04.043Z,0
2017-04-03T01:53:44.580Z,0
2017-04-03T01:54:25.144Z,0
2017-04-03T01:55:05.642Z,0
2017-04-03T01:55:46.175Z,0
2017-04-03T01:56:26.705Z,0
2017-04-03T01:57:07.243Z,0
2017-04-03T01:57:47.775Z,0
2017-04-03T01:58:28.307Z,0
2017-04-03T01:59:08.809Z,0
2017-04-03T01:59:49.345Z,0
2017-04-03T02:00:29.874Z,0
2017-04-03T02:01:10.407Z,0
2017-04-03T02:01:50.935Z,0
2017-04-03T02:02:31.473Z,0
2017-04-03T02:03:12.000Z,0
2017-04-03T02:03:52.524Z,0
2017-04-03T02:04:33.055Z,0
2017-04-03T02:05:13.568Z,0
2017-04-03T02:05:54.095Z,0
2017-04-03T02:06:34.619Z,0
2017-04-03T02:07:15.146Z,0
2017-04-03T02:07:55.681Z,0
2017-04-03T02:08:36.219Z,0
2017-04-03T02:09:16.760Z,0
2017-04-03T02:09:57.294Z,0
2017-04-03T02:10:37.826Z,0
2017-04-03T02:11:18.343Z,0
2017-04-03T02:11:58.873Z,0
2017-04-03T02:12:39.416Z,0
2017-04-03T02:13:19.964Z,0
2017-04-03T02:14:00.473Z,0
2017-04-03T02:14:40.998Z,0
2017-04-03T02:15:21.533Z,0
2017-04-03T02:16:02.043Z,0
2017-04-03T02:16:42.566Z,0
2017-04-03T02:17:23.093Z,0
2017-04-03T02:18:03.639Z,0
2017-04-03T02:18:44.182Z,0
2017-04-03T02:19:24.726Z,0
2017-04-03T02:20:05.226Z,0
2017-04-03T02:20:45.753Z,0
2017-04-03T02:21:26.272Z,0
2017-04-03T02:22:06.803Z,0
2017-04-03T02:22:47.330Z,0
2017-04-03T02:23:27.855Z,0
2017-04-03T02:24:08.389Z,0
2017-04-03T02:24:48.920Z,0
2017-04-03T02:25:29.436Z,0
2017-04-03T02:26:09.958Z,0
2017-04-03T02:26:50.481Z,0
2017-04-03T02:27:31.009Z,0
2017-04-03T02:28:11.529Z,0
2017-04-03T02:28:52.054Z,0
2017-04-03T02:29:32.582Z,0
2017-04-03T02:30:13.118Z,0
2017-04-03T02:30:53.636Z,0
2017-04-03T02:31:34.158Z,0
2017-04-03T02:32:14.696Z,0
2017-04-03T02:32:55.234Z,0
2017-04-03T02:33:35.757Z,0
2017-04-03T02:34:16.283Z,0
2017-04-03T02:34:56.806Z,0
2017-04-03T02:35:37.344Z,0
2017-04-03T02:36:17.876Z,0
2017-04-03T02:37:00.935Z,0
2017-04-03T02:37:41.473Z,0
2017-04-03T02:38:21.974Z,0
2017-04-03T02:39:02.507Z,0
2017-04-03T02:39:43.040Z,0
2017-04-03T02:40:23.570Z,0
2017-04-03T02:41:04.104Z,0
2017-04-03T02:41:44.636Z,0
2017-04-03T02:42:25.167Z,0
2017-04-03T02:43:05.705Z,0
2017-04-03T02:43:46.240Z,0
2017-04-03T02:44:26.775Z,0
2017-04-03T02:45:07.305Z,0
2017-04-03T02:45:47.848Z,0
2017-04-03T02:46:28.380Z,0
2017-04-03T02:47:08.914Z,0
2017-04-03T02:47:49.459Z,0
2017-04-03T02:48:29.991Z,0
2017-04-03T02:49:10.521Z,0
2017-04-03T02:49:51.061Z,0
2017-04-03T02:50:31.604Z,0
2017-04-03T02:51:12.143Z,0
2017-04-03T02:51:52.704Z,0
2017-04-03T02:52:33.205Z,0
2017-04-03T02:53:13.737Z,0
2017-04-03T02:53:54.273Z,0
2017-04-03T02:54:34.815Z,0
2017-04-03T02:55:15.350Z,0
2017-04-03T02:55:55.871Z,0
2017-04-03T02:56:36.404Z,0
2017-04-03T02:57:16.942Z,0
2017-04-03T02:57:57.553Z,0
2017-04-03T02:58:38.127Z,0
2017-04-03T02:59:18.653Z,0
2017-04-03T02:59:59.273Z,0
2017-04-03T03:00:39.811Z,0
2017-04-03T03:01:20.322Z,0
2017-04-03T03:02:00.856Z,0
2017-04-03T03:02:41.388Z,0
2017-04-03T03:03:21.919Z,0
2017-04-03T03:04:02.456Z,0
2017-04-03T03:04:42.994Z,0
2017-04-03T03:05:23.529Z,0
2017-04-03T03:06:04.064Z,0
2017-04-03T03:06:44.601Z,0
2017-04-03T03:07:25.109Z,0
2017-04-03T03:08:05.644Z,0
2017-04-03T03:08:46.185Z,0
2017-04-03T03:09:26.725Z,0
2017-04-03T03:10:07.260Z,0
2017-04-03T03:10:47.775Z,0
2017-04-03T03:11:28.312Z,0
2017-04-03T03:12:08.846Z,0
2017-04-03T03:12:49.367Z,0
2017-04-03T03:13:29.904Z,0
2017-04-03T03:14:10.420Z,0
2017-04-03T03:14:50.954Z,0
2017-04-03T03:15:31.487Z,0
2017-04-03T03:16:12.020Z,0
2017-04-03T03:16:52.559Z,0
2017-04-03T03:17:33.086Z,0
2017-04-03T03:18:13.614Z,0
2017-04-03T03:18:54.143Z,0
2017-04-03T03:19:34.676Z,0
2017-04-03T03:20:15.216Z,0
2017-04-03T03:20:55.771Z,0
2017-04-03T03:21:36.308Z,0
2017-04-03T03:22:16.825Z,0
2017-04-03T03:22:57.347Z,0
2017-04-03T03:23:37.880Z,0
2017-04-03T03:24:18.409Z,0
2017-04-03T03:24:58.932Z,0
2017-04-03T03:25:39.456Z,0
2017-04-03T03:26:19.981Z,0
2017-04-03T03:27:00.503Z,0
2017-04-03T03:27:41.034Z,0
2017-04-03T03:28:21.564Z,0
2017-04-03T03:29:02.103Z,0
2017-04-03T03:29:42.626Z,0
2017-04-03T03:30:23.169Z,0
2017-04-03T03:31:03.696Z,0
2017-04-03T03:31:44.223Z,0
2017-04-03T03:32:24.739Z,0
2017-04-03T03:33:05.279Z,0
2017-04-03T03:33:45.871Z,0
2017-04-03T03:34:26.409Z,0
2017-04-03T03:35:06.951Z,0
2017-04-03T03:35:47.484Z,0
2017-04-03T03:36:28.031Z,0
2017-04-03T03:37:08.549Z,0
2017-04-03T03:37:49.067Z,0
2017-04-03T03:38:29.601Z,0
2017-04-03T03:39:10.132Z,0
2017-04-03T03:39:50.672Z,0
2017-04-03T03:40:31.238Z,0
2017-04-03T03:41:11.740Z,0
2017-04-03T03:41:52.260Z,0
2017-04-03T03:42:32.789Z,0
2017-04-03T03:43:13.333Z,0
2017-04-03T03:43:53.861Z,0
2017-04-03T03:44:34.390Z,0
2017-04-03T03:45:14.912Z,0
2017-04-03T03:45:55.461Z,0
2017-04-03T03:46:35.996Z,0
2017-04-03T03:47:16.517Z,0
2017-04-03T03:47:57.033Z,0
2017-04-03T03:48:37.569Z,0
2017-04-03T03:49:18.085Z,0
2017-04-03T03:49:58.607Z,0
2017-04-03T03:50:39.135Z,0
2017-04-03T03:51:19.659Z,0
2017-04-03T03:52:00.190Z,0
2017-04-03T03:52:40.722Z,0
2017-04-03T03:53:21.256Z,0
2017-04-03T03:54:01.844Z,0
2017-04-03T03:54:42.365Z,0
2017-04-03T03:55:22.877Z,0
2017-04-03T03:56:03.398Z,0
2017-04-03T03:56:43.935Z,0
2017-04-03T03:57:24.450Z,0
2017-04-03T03:58:04.982Z,0
2017-04-03T03:58:45.513Z,0
2017-04-03T03:59:26.049Z,0
2017-04-03T04:00:06.571Z,0
2017-04-03T04:00:47.080Z,0
2017-04-03T04:01:27.610Z,0
2017-04-03T04:02:08.121Z,0
2017-04-03T04:02:48.617Z,0
2017-04-03T04:03:29.133Z,0
2017-04-03T04:04:09.790Z,0
2017-04-03T04:04:50.301Z,0
2017-04-03T04:05:30.838Z,0
2017-04-03T04:06:11.369Z,0
2017-04-03T04:06:51.900Z,0
2017-04-03T04:07:32.428Z,0
2017-04-03T04:08:12.963Z,0
2017-04-03T04:08:53.491Z,0
2017-04-03T04:09:34.026Z,0
2017-04-03T04:10:14.563Z,0
2017-04-03T04:10:55.106Z,0
2017-04-03T04:11:35.635Z,0
2017-04-03T04:12:16.156Z,0
2017-04-03T04:12:56.671Z,0
2017-04-03T04:13:37.210Z,0
2017-04-03T04:14:17.732Z,0
2017-04-03T04:14:58.248Z,0
2017-04-03T04:15:38.786Z,0
2017-04-03T04:16:19.292Z,0
2017-04-03T04:16:59.819Z,0
2017-04-03T04:17:40.352Z,0
2017-04-03T04:18:20.888Z,0
2017-04-03T04:19:01.437Z,0
2017-04-03T04:19:41.966Z,0
2017-04-03T04:20:22.496Z,0
2017-04-03T04:21:03.004Z,0
2017-04-03T04:21:43.538Z,0
2017-04-03T04:22:24.054Z,0
2017-04-03T04:23:04.575Z,0
2017-04-03T04:23:45.072Z,0
2017-04-03T04:24:25.587Z,0
2017-04-03T04:25:06.113Z,0
2017-04-03T04:25:46.612Z,0
2017-04-03T04:26:27.145Z,0
2017-04-03T04:27:07.676Z,0
2017-04-03T04:27:48.218Z,0
2017-04-03T04:28:28.732Z,0
2017-04-03T04:29:09.262Z,0
2017-04-03T04:29:49.807Z,0
2017-04-03T04:30:30.327Z,0
2017-04-03T04:31:10.847Z,0
2017-04-03T04:31:51.381Z,0
2017-04-03T04:32:31.917Z,0
2017-04-03T04:33:12.464Z,0
2017-04-03T04:33:53.011Z,0
2017-04-03T04:34:33.540Z,0
2017-04-03T04:35:14.079Z,0
2017-04-03T04:35:54.604Z,0
2017-04-03T04:36:35.151Z,0
2017-04-03T04:37:15.667Z,0
2017-04-03T04:37:56.185Z,0
2017-04-03T04:38:36.694Z,0
2017-04-03T04:39:17.237Z,0
2017-04-03T04:39:57.769Z,0
2017-04-03T04:40:38.319Z,0
2017-04-03T04:41:18.843Z,0
2017-04-03T04:41:59.358Z,0
2017-04-03T04:42:39.878Z,0
2017-04-03T04:43:20.416Z,0
2017-04-03T04:44:00.934Z,0
2017-04-03T04:44:41.457Z,0
2017-04-03T04:45:21.977Z,0
2017-04-03T04:46:02.516Z,0
2017-04-03T04:46:43.039Z,0
2017-04-03T04:47:23.555Z,0
2017-04-03T04:48:04.088Z,0
2017-04-03T04:48:44.623Z,0
2017-04-03T04:49:25.155Z,0
2017-04-03T04:50:05.678Z,0
2017-04-03T04:50:46.186Z,0
2017-04-03T04:51:26.718Z,0
2017-04-03T04:52:07.247Z,0
2017-04-03T04:52:47.782Z,0
2017-04-03T04:53:28.311Z,0
2017-04-03T04:54:08.840Z,0
2017-04-03T04:54:49.375Z,0
2017-04-03T04:55:29.877Z,0
2017-04-03T04:56:10.408Z,0
2017-04-03T04:56:50.935Z,0
2017-04-03T04:57:31.448Z,0
2017-04-03T04:58:11.971Z,0
2017-04-03T04:58:52.506Z,0
2017-04-03T04:59:33.039Z,0
2017-04-03T05:00:13.590Z,0
2017-04-03T05:00:54.096Z,5
2017-04-03T05:01:34.623Z,5
2017-04-03T05:02:15.149Z,5
2017-04-03T05:02:55.676Z,5
2017-04-03T05:03:36.197Z,5
2017-04-03T05:04:16.713Z,5
2017-04-03T05:04:57.240Z,5
2017-04-03T05:05:37.769Z,5
2017-04-03T05:06:18.273Z,5
2017-04-03T05:06:58.795Z,5
2017-04-03T05:07:39.338Z,5
2017-04-03T05:08:19.848Z,5
2017-04-03T05:09:00.377Z,10
2017-04-03T05:09:40.903Z,10
2017-04-03T05:10:21.435Z,10
2017-04-03T05:11:02.002Z,10
2017-04-03T05:11:42.506Z,10
2017-04-03T05:12:23.009Z,10
2017-04-03T05:13:03.528Z,10
2017-04-03T05:13:44.050Z,10
2017-04-03T05:14:24.594Z,15
2017-04-03T05:15:05.148Z,15
2017-04-03T05:15:45.675Z,15
2017-04-03T05:16:26.208Z,15
2017-04-03T05:17:06.749Z,15
2017-04-03T05:17:47.269Z,15
2017-04-03T05:18:27.799Z,15
2017-04-03T05:19:08.329Z,20
2017-04-03T05:19:48.866Z,20
2017-04-03T05:20:29.395Z,20
2017-04-03T05:21:09.916Z,20
2017-04-03T05:21:50.440Z,20
2017-04-03T05:22:30.954Z,20
2017-04-03T05:23:11.486Z,25
2017-04-03T05:23:52.004Z,25
2017-04-03T05:24:32.507Z,25
2017-04-03T05:25:13.004Z,25
2017-04-03T05:25:53.516Z,25
2017-04-03T05:26:34.038Z,25
2017-04-03T05:27:14.576Z,30
2017-04-03T05:27:55.138Z,30
2017-04-03T05:28:35.677Z,30
2017-04-03T05:29:16.194Z,30
2017-04-03T05:29:56.726Z,30
2017-04-03T05:30:37.257Z,30
2017-04-03T05:31:17.791Z,35
2017-04-03T05:31:58.315Z,35
2017-04-03T05:32:38.850Z,35
2017-04-03T05:33:19.390Z,35
2017-04-03T05:33:59.932Z,35
2017-04-03T05:34:40.468Z,35
2017-04-03T05:35:21.012Z,40
2017-04-03T05:36:01.545Z,40
2017-04-03T05:36:42.093Z,40
2017-04-03T05:37:22.614Z,40
2017-04-03T05:38:03.150Z,40
2017-04-03T05:38:43.682Z,45
2017-04-03T05:39:24.219Z,45
2017-04-03T05:40:04.747Z,45
2017-04-03T05:40:45.295Z,45
2017-04-03T05:41:25.822Z,50
2017-04-03T05:42:06.352Z,50
2017-04-03T05:42:46.868Z,50
2017-04-03T05:43:27.405Z,50
2017-04-03T05:44:07.936Z,50
2017-04-03T05:44:48.454Z,50
2017-04-03T05:45:28.984Z,55
2017-04-03T05:46:09.531Z,55
2017-04-03T05:46:50.337Z,55
2017-04-03T05:47:31.010Z,55
2017-04-03T05:48:11.533Z,60
2017-04-03T05:48:52.073Z,60
2017-04-03T05:49:32.589Z,60
2017-04-03T05:50:13.119Z,60
2017-04-03T05:50:53.613Z,65
2017-04-03T05:51:34.150Z,65
2017-04-03T05:52:14.690Z,65
2017-04-03T05:52:55.227Z,65
2017-04-03T05:53:35.754Z,70
2017-04-03T05:54:16.268Z,70
2017-04-03T05:54:56.798Z,70
2017-04-03T05:55:37.325Z,70
2017-04-03T05:56:17.869Z,70
2017-04-03T05:56:58.391Z,75
2017-04-03T05:57:38.919Z,75
2017-04-03T05:58:19.509Z,75
2017-04-03T05:59:00.027Z,75
2017-04-03T05:59:40.559Z,80
2017-04-03T06:00:21.086Z,80
2017-04-03T06:01:01.627Z,80
2017-04-03T06:01:42.152Z,80
2017-04-03T06:02:22.690Z,85
2017-04-03T06:03:03.233Z,85
2017-04-03T06:03:43.724Z,85
2017-04-03T06:04:24.301Z,85
2017-04-03T06:05:04.822Z,90
2017-04-03T06:05:45.353Z,90
2017-04-03T06:06:25.893Z,90
2017-04-03T06:07:06.426Z,90
2017-04-03T06:07:46.967Z,95
2017-04-03T06:08:27.499Z,95
2017-04-03T06:09:08.034Z,95
2017-04-03T06:09:48.541Z,100
2017-04-03T06:10:29.066Z,100
2017-04-03T06:11:09.579Z,100
2017-04-03T06:11:50.093Z,100
2017-04-03T06:12:30.620Z,105
2017-04-03T06:13:11.125Z,105
2017-04-03T06:13:51.650Z,105
2017-04-03T06:14:32.177Z,110
2017-04-03T06:15:12.706Z,110
2017-04-03T06:15:53.241Z,110
2017-04-03T06:16:33.731Z,115
2017-04-03T06:17:14.275Z,115
2017-04-03T06:17:54.813Z,115
2017-04-03T06:18:35.346Z,120
2017-04-03T06:19:15.878Z,120
2017-04-03T06:19:56.399Z,125
2017-04-03T06:20:36.924Z,125
2017-04-03T06:21:17.452Z,125
2017-04-03T06:21:57.999Z,125
2017-04-03T06:22:38.531Z,130
2017-04-03T06:23:19.077Z,130
2017-04-03T06:23:59.606Z,130
2017-04-03T06:24:40.135Z,135
2017-04-03T06:25:20.669Z,135
2017-04-03T06:26:01.208Z,135
2017-04-03T06:26:41.732Z,135
2017-04-03T06:27:22.259Z,135
2017-04-03T06:28:02.785Z,140
2017-04-03T06:28:43.290Z,140
2017-04-03T06:29:23.835Z,140
2017-04-03T06:30:04.385Z,140
2017-04-03T06:30:44.907Z,145
2017-04-03T06:31:25.440Z,150
2017-04-03T06:32:05.948Z,150
2017-04-03T06:32:46.531Z,150
2017-04-03T06:33:27.059Z,155
2017-04-03T06:34:07.589Z,160
2017-04-03T06:34:48.084Z,160
2017-04-03T06:35:28.620Z,160
2017-04-03T06:36:09.140Z,160
2017-04-03T06:36:49.662Z,160
2017-04-03T06:37:30.190Z,165
2017-04-03T06:38:10.728Z,165
2017-04-03T06:38:51.271Z,170
2017-04-03T06:39:31.808Z,170
2017-04-03T06:40:12.347Z,175
2017-04-03T06:40:52.901Z,185
2017-04-03T06:41:33.410Z,180
2017-04-03T06:42:13.930Z,180
2017-04-03T06:42:54.458Z,185
2017-04-03T06:43:34.999Z,195
2017-04-03T06:44:15.588Z,195
2017-04-03T06:44:56.118Z,200
2017-04-03T06:45:36.663Z,200
2017-04-03T06:46:17.202Z,200
2017-04-03T06:46:57.729Z,205
2017-04-03T06:47:38.257Z,205
2017-04-03T06:48:18.804Z,205
2017-04-03T06:48:59.331Z,210
2017-04-03T06:49:39.883Z,215
2017-04-03T06:50:20.411Z,210
2017-04-03T06:51:00.952Z,205
2017-04-03T06:51:41.526Z,200
2017-04-03T06:52:22.011Z,200
2017-04-03T06:53:02.544Z,200
2017-04-03T06:53:43.078Z,200
2017-04-03T06:54:23.620Z,200
2017-04-03T06:55:04.156Z,200
2017-04-03T06:55:44.687Z,200
2017-04-03T06:56:25.212Z,205
2017-04-03T06:57:05.726Z,215
2017-04-03T06:57:46.301Z,220
2017-04-03T06:58:26.830Z,225
2017-04-03T06:59:07.361Z,225
2017-04-03T06:59:47.862Z,230
2017-04-03T07:00:28.393Z,225
2017-04-03T07:01:08.918Z,220
2017-04-03T07:01:49.459Z,225
2017-04-03T07:02:29.961Z,225
2017-04-03T07:03:10.478Z,230
2017-04-03T07:03:51.019Z,235
2017-04-03T07:04:31.562Z,240
2017-04-03T07:05:12.103Z,235
2017-04-03T07:05:52.612Z,240
2017-04-03T07:06:33.143Z,240
2017-04-03T07:07:13.677Z,225
2017-04-03T07:07:54.207Z,225
2017-04-03T07:08:34.732Z,235
2017-04-03T07:09:15.262Z,240
2017-04-03T07:09:55.782Z,245
2017-04-03T07:10:36.317Z,245
2017-04-03T07:11:16.859Z,245
2017-04-03T07:11:57.389Z,230
2017-04-03T07:12:37.901Z,215
2017-04-03T07:13:18.431Z,210
2017-04-03T07:13:58.960Z,210
2017-04-03T07:14:39.512Z,220
2017-04-03T07:15:20.041Z,215
2017-04-03T07:16:00.571Z,220
2017-04-03T07:16:41.098Z,220
2017-04-03T07:17:21.634Z,225
2017-04-03T07:18:02.165Z,240
2017-04-03T07:18:42.691Z,250
2017-04-03T07:19:23.221Z,250
2017-04-03T07:20:03.755Z,245
2017-04-03T07:20:44.278Z,240
2017-04-03T07:21:24.790Z,240
2017-04-03T07:22:05.313Z,245
2017-04-03T07:22:45.838Z,260
2017-04-03T07:23:26.373Z,260
2017-04-03T07:24:06.921Z,260
2017-04-03T07:24:47.454Z,255
2017-04-03T07:25:27.982Z,260
2017-04-03T07:26:08.517Z,255
2017-04-03T07:26:49.050Z,250
2017-04-03T07:27:29.591Z,260
2017-04-03T07:28:10.121Z,265
2017-04-03T07:28:50.640Z,260
2017-04-03T07:29:31.169Z,255
2017-04-03T07:30:11.697Z,240
2017-04-03T07:30:52.240Z,225
2017-04-03T07:31:32.776Z,225
2017-04-03T07:32:13.320Z,225
2017-04-03T07:32:53.855Z,230
2017-04-03T07:33:34.385Z,230
2017-04-03T07:34:14.920Z,220
2017-04-03T07:34:55.458Z,215
2017-04-03T07:35:35.997Z,210
2017-04-03T07:36:16.527Z,205
2017-04-03T07:36:57.049Z,205
2017-04-03T07:37:37.584Z,205
2017-04-03T07:38:18.114Z,195
2017-04-03T07:38:58.654Z,190
2017-04-03T07:39:39.190Z,180
2017-04-03T07:40:19.725Z,175
2017-04-03T07:41:00.248Z,175
2017-04-03T07:41:40.782Z,180
2017-04-03T07:42:21.306Z,185
2017-04-03T07:43:01.850Z,195
2017-04-03T07:43:42.397Z,210
2017-04-03T07:44:22.907Z,220
2017-04-03T07:45:03.436Z,220
2017-04-03T07:45:43.965Z,210
2017-04-03T07:46:24.503Z,190
2017-04-03T07:47:05.051Z,175
2017-04-03T07:47:45.577Z,170
2017-04-03T07:48:26.109Z,175
2017-04-03T07:49:06.661Z,185
2017-04-03T07:49:47.193Z,190
2017-04-03T07:50:27.740Z,185
2017-04-03T07:51:08.265Z,180
2017-04-03T07:51:48.810Z,180
2017-04-03T07:52:29.347Z,185
2017-04-03T07:53:09.880Z,190
2017-04-03T07:53:50.404Z,190
2017-04-03T07:54:30.934Z,185
2017-04-03T07:55:11.469Z,175
2017-04-03T07:55:52.004Z,165
2017-04-03T07:56:32.521Z,165
2017-04-03T07:57:13.047Z,170
2017-04-03T07:57:53.584Z,175
2017-04-03T07:58:34.121Z,175
2017-04-03T07:59:14.648Z,165
2017-04-03T07:59:55.199Z,155
2017-04-03T08:00:35.742Z,150
2017-04-03T08:01:16.270Z,150
2017-04-03T08:01:56.799Z,150
2017-04-03T08:02:37.339Z,155
2017-04-03T08:03:17.877Z,160
2017-04-03T08:03:58.414Z,160
2017-04-03T08:04:38.946Z,150
2017-04-03T08:05:19.474Z,145
2017-04-03T08:06:00.002Z,145
2017-04-03T08:06:40.516Z,150
2017-04-03T08:07:21.046Z,155
2017-04-03T08:08:01.577Z,155
2017-04-03T08:08:42.107Z,160
2017-04-03T08:09:22.642Z,160
2017-04-03T08:10:03.163Z,165
2017-04-03T08:10:43.687Z,160
2017-04-03T08:11:24.216Z,160
2017-04-03T08:12:04.752Z,160
2017-04-03T08:12:45.281Z,160
2017-04-03T08:13:25.814Z,155
2017-04-03T08:14:06.352Z,155
2017-04-03T08:14:46.877Z,150
2017-04-03T08:15:27.408Z,150
2017-04-03T08:16:07.932Z,150
2017-04-03T08:16:48.479Z,150
2017-04-03T08:17:29.023Z,145
2017-04-03T08:18:09.552Z,140
2017-04-03T08:18:50.093Z,135
2017-04-03T08:19:30.626Z,130
2017-04-03T08:20:11.157Z,130
2017-04-03T08:20:51.696Z,130
2017-04-03T08:21:32.230Z,130
2017-04-03T08:22:12.768Z,125
2017-04-03T08:22:53.310Z,125
2017-04-03T08:23:33.838Z,125
2017-04-03T08:24:14.367Z,130
2017-04-03T08:24:54.902Z,140
2017-04-03T08:25:35.436Z,140
2017-04-03T08:26:15.977Z,150
2017-04-03T08:26:56.506Z,145
2017-04-03T08:27:37.022Z,145
2017-04-03T08:28:17.539Z,140
2017-04-03T08:28:58.067Z,140
2017-04-03T08:29:38.586Z,150
2017-04-03T08:30:19.107Z,150
2017-04-03T08:30:59.629Z,145
2017-04-03T08:31:40.127Z,150
2017-04-03T08:32:20.665Z,150
2017-04-03T08:33:01.200Z,145
2017-04-03T08:33:41.749Z,150
2017-04-03T08:34:22.297Z,145
2017-04-03T08:35:02.829Z,140
2017-04-03T08:35:43.331Z,135
2017-04-03T08:36:23.834Z,135
2017-04-03T08:37:04.365Z,130
2017-04-03T08:37:44.914Z,130
2017-04-03T08:38:25.452Z,125
2017-04-03T08:39:05.973Z,125
2017-04-03T08:39:46.485Z,125
2017-04-03T08:40:27.066Z,125
2017-04-03T08:41:07.539Z,120
2017-04-03T08:41:48.081Z,120
2017-04-03T08:42:28.600Z,120
2017-04-03T08:43:09.118Z,120
2017-04-03T08:43:49.630Z,125
2017-04-03T08:44:30.155Z,125
2017-04-03T08:45:10.690Z,125
2017-04-03T08:45:51.218Z,120
2017-04-03T08:46:31.722Z,120
2017-04-03T08:47:12.294Z,120
2017-04-03T08:47:52.816Z,125
2017-04-03T08:48:33.332Z,125
2017-04-03T08:49:13.843Z,120
2017-04-03T08:49:54.373Z,125
2017-04-03T08:50:34.909Z,125
2017-04-03T08:51:15.440Z,125
2017-04-03T08:51:55.974Z,125
2017-04-03T08:52:36.522Z,125
2017-04-03T08:53:17.057Z,125
2017-04-03T08:53:57.586Z,125
2017-04-03T08:54:38.099Z,125
2017-04-03T08:55:18.624Z,125
2017-04-03T08:55:59.158Z,130
2017-04-03T08:56:39.678Z,130
2017-04-03T08:57:20.197Z,135
2017-04-03T08:58:00.743Z,140
2017-04-03T08:58:41.260Z,145
2017-04-03T08:59:21.794Z,140
2017-04-03T09:00:02.329Z,135
2017-04-03T09:00:42.852Z,135
2017-04-03T09:01:23.384Z,135
2017-04-03T09:02:03.904Z,135
2017-04-03T09:02:44.457Z,135
2017-04-03T09:03:24.988Z,140
2017-04-03T09:04:05.506Z,145
2017-04-03T09:04:46.031Z,150
2017-04-03T09:05:26.577Z,145
2017-04-03T09:06:07.114Z,140
2017-04-03T09:06:47.642Z,140
2017-04-03T09:07:28.175Z,140
2017-04-03T09:08:08.710Z,140
2017-04-03T09:08:49.230Z,145
2017-04-03T09:09:29.758Z,145
2017-04-03T09:10:10.296Z,145
2017-04-03T09:10:50.828Z,145
2017-04-03T09:11:31.367Z,140
2017-04-03T09:12:11.895Z,140
2017-04-03T09:12:52.432Z,135
2017-04-03T09:13:32.950Z,135
2017-04-03T09:14:13.478Z,135
2017-04-03T09:14:54.014Z,130
2017-04-03T09:15:34.533Z,130
2017-04-03T09:16:15.048Z,130
2017-04-03T09:16:55.584Z,135
2017-04-03T09:17:36.117Z,135
2017-04-03T09:18:16.653Z,135
2017-04-03T09:18:57.172Z,140
2017-04-03T09:19:37.695Z,145
2017-04-03T09:20:18.208Z,155
2017-04-03T09:20:58.723Z,165
2017-04-03T09:21:39.236Z,175
2017-04-03T09:22:19.761Z,175
2017-04-03T09:23:00.306Z,175
2017-04-03T09:23:40.828Z,175
2017-04-03T09:24:21.364Z,175
2017-04-03T09:25:01.886Z,170
2017-04-03T09:25:42.393Z,165
2017-04-03T09:26:22.913Z,165
2017-04-03T09:27:03.449Z,165
2017-04-03T09:27:43.969Z,160
2017-04-03T09:28:24.492Z,160
2017-04-03T09:29:05.037Z,160
2017-04-03T09:29:45.571Z,155
2017-04-03T09:30:26.099Z,155
2017-04-03T09:31:06.636Z,150
2017-04-03T09:31:47.177Z,150
2017-04-03T09:32:27.694Z,150
2017-04-03T09:33:08.239Z,160
2017-04-03T09:33:48.776Z,160
2017-04-03T09:34:29.289Z,165
2017-04-03T09:35:09.799Z,165
2017-04-03T09:35:50.304Z,165
2017-04-03T09:36:30.832Z,160
2017-04-03T09:37:11.362Z,155
2017-04-03T09:37:51.875Z,160
2017-04-03T09:38:32.391Z,170
2017-04-03T09:39:12.931Z,180
2017-04-03T09:39:53.422Z,195
2017-04-03T09:40:33.956Z,200
2017-04-03T09:41:14.484Z,205